Details From EDDK - Koln Bonn
To EFTU - Turku
Flight Number -
Tags Generated
Created
Modified
Stats Distance 770 nm / 1,426 km
Max Altitude 0 ft / 0 m
Waypoints 5
Social Downloads 1
Likes 0
Share VATSIM

Download

Looking for another format? Having issues loading an existing format? Contact us
Advertisement - Login to hide

Notes

Generated

Route

EDDK MEGAR VIBAR RUS EFTU

ID Type Via Altitude Latitude Longitude Leg Dist Tot Dist Heading (true) Name
O EDDK APT - 0 ft / 0 m 50.87084˚ 7.12086˚ - 0 nm - -
MEGAR FIX - 0 ft / 0 m 54.46833˚ 11.64833˚ 271 nm 271 nm 36° / 39° -
VIBAR FIX - 0 ft / 0 m 57.57814˚ 16.39064˚ 245 nm 516 nm 38° / 42° -
RUS VOR - 0 ft / 0 m 60.51519˚ 22.25653˚ 252 nm 769 nm 43° / 48° RUSKO VOR-DME
O EFTU APT - 0 ft / 0 m 60.51311˚ 22.24015˚ 0 nm 770 nm 256° / 256° -

Altitude Profile

Advertisement - Login to hide

Weather


0- 5 10 15 20 25 30 35+ Temperature / ° C

Clouds and Precipitation
Forecast for 2018-05-22 06:00 UTC. Updated 2 hours ago

Ground ~20,000 ft ~40,000 ft Winds

EDDK

Details ICAO EDDK (CGN)
Name Koln Bonn
Region Germany - Civil
Timezone Europe/Berlin (UTC+2.0)
Stats Elevation 302 ft / 92 m (AMSL)
Location 50.865801° 7.138903°
Runways 3
Magnetic Variation 1.987° E

METAR

EDDK 220650Z 14005KT 060V180 9999 -RA SCT032TCU BKN090 16/11 Q1012 NOSIG

Decode

TAF

TAF EDDK 220500Z 2206/2312 VRB03KT CAVOK TEMPO 2213/2220 06015G25KT 4000 TSRA BKN040CB

Decode

Departure Runways

ID Width Length Bearing (true) Bearing (mag) Surface Threshold Offset Overrun Length
06 148 ft / 45 m 8,047 ft / 2,453 m 64.33° 62.34° Concrete 0 ft / 0 m 197 ft / 60 m
14L 197 ft / 60 m 12,497 ft / 3,809 m 137.55° 135.56° Asphalt 0 ft / 0 m 197 ft / 60 m
14R 148 ft / 45 m 6,102 ft / 1,860 m 137.54° 135.55° Asphalt 0 ft / 0 m 197 ft / 60 m
24 148 ft / 45 m 8,047 ft / 2,453 m 244.36° 242.37° Concrete 0 ft / 0 m 197 ft / 60 m
32L 148 ft / 45 m 6,102 ft / 1,860 m 317.56° 315.57° Asphalt 0 ft / 0 m 197 ft / 60 m
32R 197 ft / 60 m 12,497 ft / 3,809 m 317.58° 315.59° Asphalt 0 ft / 0 m 197 ft / 60 m

EFTU

Details ICAO EFTU (TKU)
Name Turku
Region Finland
Timezone Europe/Helsinki (UTC+3.0)
Stats Elevation 161 ft / 49 m (AMSL)
Location 60.514115° 22.262812°
Runways 1
Magnetic Variation 8.044° E

METAR

EFTU 220650Z AUTO 10005KT 050V150 CAVOK 20/06 Q1023

Decode

TAF

TAF EFTU 220533Z 2206/2306 19008KT CAVOK

Decode

Destination Runways

ID Width Length Bearing (true) Bearing (mag) Surface Threshold Offset Overrun Length
08 197 ft / 60 m 8,175 ft / 2,492 m 84.82° 76.78° Asphalt 0 ft / 0 m 0 ft / 0 m
26 197 ft / 60 m 8,175 ft / 2,492 m 264.86° 256.82° Asphalt 0 ft / 0 m 0 ft / 0 m

Approach Navaids

Runway Type Ident Frequency Range Bearing (true) Bearing (mag) Slope Elevation
26 Localiser TU 109.50 MHz 18 nm / 33 km 264.82° 256.77° - 161 ft / 49 m (AMSL)
26 Glidescope TU 109.50 MHz 10 nm / 19 km 264.84° 256.80° 3.00° 161 ft / 49 m (AMSL)
26 DME TU 109.50 MHz 18 nm / 33 km - - - 200 ft / 61 m (AMSL)